createdAt,value
2023-02-27T00:01:33.238Z,4.45
2023-02-27T00:04:01.266Z,4.13
2023-02-27T00:06:29.209Z,4.75
2023-02-27T00:08:57.033Z,3.95
2023-02-27T00:11:24.969Z,3.70
2023-02-27T00:13:52.777Z,5.25
2023-02-27T00:16:21.879Z,5.15
2023-02-27T00:18:49.565Z,3.85
2023-02-27T00:21:17.163Z,4.85
2023-02-27T00:23:44.745Z,4.18
2023-02-27T00:26:12.326Z,5.30
2023-02-27T00:28:40.008Z,5.22
2023-02-27T00:31:07.749Z,5.80
2023-02-27T00:33:36.769Z,5.40
2023-02-27T00:36:04.665Z,4.82
2023-02-27T00:38:32.342Z,4.93
2023-02-27T00:41:00.122Z,5.13
2023-02-27T00:43:27.790Z,6.20
2023-02-27T00:45:57.120Z,5.55
2023-02-27T00:48:24.766Z,5.68
2023-02-27T00:50:53.834Z,5.18
2023-02-27T00:53:21.495Z,6.63
2023-02-27T00:55:49.152Z,5.60
2023-02-27T00:58:16.953Z,5.22
2023-02-27T01:00:44.702Z,6.47
2023-02-27T01:03:12.437Z,5.30
2023-02-27T01:05:40.186Z,5.00
2023-02-27T01:08:09.378Z,6.47
2023-02-27T01:10:36.999Z,5.43
2023-02-27T01:13:07.476Z,5.93
2023-02-27T01:15:35.354Z,5.68
2023-02-27T01:18:03.352Z,6.80
2023-02-27T01:20:31.068Z,5.78
2023-02-27T01:22:58.775Z,5.18
2023-02-27T01:25:27.855Z,5.55
2023-02-27T01:27:55.650Z,5.60
2023-02-27T01:30:23.356Z,6.03
2023-02-27T01:32:50.998Z,6.22
2023-02-27T01:35:18.958Z,6.45
2023-02-27T01:37:46.683Z,6.40
2023-02-27T01:40:15.231Z,5.65
2023-02-27T01:42:46.478Z,6.28
2023-02-27T01:45:35.957Z,5.78
2023-02-27T01:48:08.986Z,5.70
2023-02-27T01:50:40.327Z,4.90
2023-02-27T01:53:08.702Z,6.65
2023-02-27T01:55:39.509Z,6.20
2023-02-27T01:58:11.926Z,5.65
2023-02-27T02:00:40.263Z,6.28
2023-02-27T02:03:23.808Z,5.68
2023-02-27T02:05:54.403Z,5.30
2023-02-27T02:08:24.169Z,6.30
2023-02-27T02:10:54.412Z,6.03
2023-02-27T02:13:23.750Z,5.45
2023-02-27T02:16:05.158Z,6.45
2023-02-27T02:18:43.721Z,5.85
2023-02-27T02:21:58.143Z,5.40
2023-02-27T02:25:00.596Z,6.75
2023-02-27T02:27:39.080Z,6.07
2023-02-27T02:30:45.935Z,6.20
2023-02-27T02:33:46.813Z,6.63
2023-02-27T02:36:44.219Z,6.95
2023-02-27T02:39:42.506Z,6.40
2023-02-27T02:42:17.879Z,5.85
2023-02-27T02:44:52.866Z,5.95
2023-02-27T02:47:32.219Z,6.25
2023-02-27T02:50:09.216Z,6.30
2023-02-27T02:52:46.903Z,5.95
2023-02-27T02:55:23.275Z,6.35
2023-02-27T02:57:57.124Z,6.55
2023-02-27T03:00:29.779Z,5.97
2023-02-27T03:03:05.909Z,7.05
2023-02-27T03:05:38.783Z,6.20
2023-02-27T03:08:11.496Z,6.80
2023-02-27T03:10:46.743Z,6.60
2023-02-27T03:13:21.802Z,7.15
2023-02-27T03:15:59.392Z,5.20
2023-02-27T03:18:33.269Z,5.13
2023-02-27T03:21:05.579Z,6.60
2023-02-27T03:23:37.957Z,7.03
2023-02-27T03:26:08.886Z,6.15
2023-02-27T03:28:42.315Z,5.82
2023-02-27T03:31:15.206Z,6.40
2023-02-27T03:33:49.791Z,5.50
2023-02-27T03:36:27.489Z,5.57
2023-02-27T03:39:01.891Z,5.50
2023-02-27T03:41:36.921Z,7.65
2023-02-27T03:44:41.803Z,6.20
2023-02-27T03:47:09.644Z,6.03
2023-02-27T03:49:37.609Z,5.78
2023-02-27T03:52:06.117Z,5.65
2023-02-27T03:54:37.734Z,6.50
2023-02-27T03:57:08.920Z,5.43
2023-02-27T03:59:38.635Z,5.93
2023-02-27T04:02:06.785Z,5.97
2023-02-27T04:04:36.515Z,5.55
2023-02-27T04:07:39.183Z,5.70
2023-02-27T04:10:44.455Z,5.80
2023-02-27T04:13:43.260Z,5.82
2023-02-27T04:16:36.962Z,6.03
2023-02-27T04:19:18.591Z,4.88
2023-02-27T04:21:57.970Z,5.80
2023-02-27T04:24:37.155Z,5.57
2023-02-27T04:27:12.009Z,5.40
2023-02-27T04:29:52.605Z,6.25
2023-02-27T04:32:26.150Z,6.60
2023-02-27T04:34:58.322Z,6.80
2023-02-27T04:37:31.153Z,6.15
2023-02-27T04:40:05.175Z,6.80
2023-02-27T04:42:36.457Z,6.30
2023-02-27T04:45:09.539Z,5.30
2023-02-27T04:47:41.755Z,5.90
2023-02-27T04:50:14.492Z,6.03
2023-02-27T04:52:48.031Z,6.65
2023-02-27T04:55:21.278Z,6.80
2023-02-27T04:57:52.867Z,6.47
2023-02-27T05:00:24.939Z,7.20
2023-02-27T05:02:55.976Z,6.30
2023-02-27T05:05:27.066Z,7.75
2023-02-27T05:07:58.850Z,6.35
2023-02-27T05:10:34.094Z,6.57
2023-02-27T05:13:08.344Z,6.40
2023-02-27T05:15:41.426Z,6.30
2023-02-27T05:18:11.617Z,6.50
2023-02-27T05:20:51.275Z,7.97
2023-02-27T05:23:26.017Z,5.70
2023-02-27T05:25:59.699Z,7.55
2023-02-27T05:28:34.154Z,6.82
2023-02-27T05:31:10.774Z,7.20
2023-02-27T05:33:46.630Z,6.40
2023-02-27T05:36:19.352Z,7.20
2023-02-27T05:38:51.445Z,7.38
2023-02-27T05:41:22.838Z,7.05
2023-02-27T05:43:55.368Z,6.55
2023-02-27T05:46:30.279Z,6.55
2023-02-27T05:49:01.606Z,6.53
2023-02-27T05:51:32.922Z,5.80
2023-02-27T05:54:07.222Z,7.72
2023-02-27T05:56:37.728Z,8.30
2023-02-27T05:59:11.249Z,6.88
2023-02-27T06:01:40.546Z,6.25
2023-02-27T06:04:08.286Z,7.22
2023-02-27T06:06:37.310Z,7.18
2023-02-27T06:09:05.201Z,6.80
2023-02-27T06:11:32.862Z,7.18
2023-02-27T06:14:00.508Z,7.10
2023-02-27T06:16:28.588Z,7.32
2023-02-27T06:18:57.806Z,6.22
2023-02-27T06:21:25.569Z,7.95
2023-02-27T06:23:53.339Z,6.95
2023-02-27T06:26:20.945Z,7.95
2023-02-27T06:28:48.597Z,8.35
2023-02-27T06:31:16.557Z,6.82
2023-02-27T06:33:44.424Z,8.38
2023-02-27T06:36:13.518Z,8.57
2023-02-27T06:38:41.557Z,7.53
2023-02-27T06:41:09.255Z,7.85
2023-02-27T06:43:37.225Z,11.75
2023-02-27T06:46:05.387Z,8.65
2023-02-27T06:48:33.312Z,7.75
2023-02-27T06:51:01.090Z,6.20
2023-02-27T06:53:30.401Z,6.35
2023-02-27T06:55:58.088Z,7.40
2023-02-27T06:58:25.863Z,5.60
2023-02-27T07:00:53.532Z,5.88
2023-02-27T07:03:21.227Z,5.32
2023-02-27T07:05:48.858Z,6.03
2023-02-27T07:08:17.468Z,5.75
2023-02-27T07:10:49.170Z,4.38
2023-02-27T07:13:19.565Z,4.35
2023-02-27T07:15:47.818Z,5.78
2023-02-27T07:18:15.573Z,4.78
2023-02-27T07:20:43.175Z,3.83
2023-02-27T07:23:11.612Z,4.22
2023-02-27T07:25:39.210Z,4.90
2023-02-27T07:28:08.221Z,4.22
2023-02-27T07:30:35.973Z,5.20
2023-02-27T07:33:03.653Z,4.90
2023-02-27T07:35:31.520Z,4.43
2023-02-27T07:37:59.173Z,4.80
2023-02-27T07:40:26.852Z,4.95
2023-02-27T07:42:54.467Z,6.78
2023-02-27T07:45:24.569Z,4.38
2023-02-27T07:47:52.440Z,5.07
2023-02-27T07:50:20.375Z,4.63
2023-02-27T07:52:48.016Z,4.75
2023-02-27T07:55:16.028Z,4.57
2023-02-27T07:57:46.079Z,4.85
2023-02-27T08:00:14.685Z,4.30
2023-02-27T08:02:43.953Z,4.95
2023-02-27T08:05:12.109Z,4.47
2023-02-27T08:07:39.803Z,4.25
2023-02-27T08:10:08.478Z,4.50
2023-02-27T08:12:36.263Z,4.38
2023-02-27T08:15:04.301Z,4.40
2023-02-27T08:17:31.970Z,4.00
2023-02-27T08:20:01.029Z,4.50
2023-02-27T08:22:28.681Z,3.75
2023-02-27T08:24:56.374Z,4.07
2023-02-27T08:27:24.011Z,4.45
2023-02-27T08:29:52.132Z,4.70
2023-02-27T08:32:20.066Z,4.38
2023-02-27T08:34:47.723Z,4.37
2023-02-27T08:37:16.697Z,4.28
2023-02-27T08:39:44.353Z,3.50
2023-02-27T08:42:12.000Z,3.50
2023-02-27T08:44:39.682Z,4.30
2023-02-27T08:47:07.345Z,2.97
2023-02-27T08:49:35.145Z,3.67
2023-02-27T08:52:03.973Z,2.83
2023-02-27T08:54:33.061Z,2.90
2023-02-27T08:57:00.693Z,3.57
2023-02-27T08:59:28.326Z,3.70
2023-02-27T09:01:55.952Z,2.70
2023-02-27T09:04:23.644Z,3.40
2023-02-27T09:06:53.259Z,3.43
2023-02-27T09:09:23.525Z,3.87
2023-02-27T09:11:52.828Z,3.40
2023-02-27T09:14:20.746Z,3.60
2023-02-27T09:16:48.499Z,3.13
2023-02-27T09:19:16.333Z,3.60
2023-02-27T09:21:44.117Z,3.50
2023-02-27T09:24:19.728Z,3.50
2023-02-27T09:26:49.031Z,2.90
2023-02-27T09:29:18.663Z,2.70
2023-02-27T09:31:46.538Z,3.40
2023-02-27T09:34:14.248Z,2.77
2023-02-27T09:36:42.016Z,3.00
2023-02-27T09:39:10.648Z,3.17
2023-02-27T09:41:55.685Z,3.10
2023-02-27T09:44:45.256Z,3.40
2023-02-27T09:47:18.573Z,2.53
2023-02-27T09:50:02.507Z,2.70
2023-02-27T09:52:32.716Z,2.83
2023-02-27T09:55:00.481Z,2.70
2023-02-27T09:57:44.651Z,2.70
2023-02-27T10:00:26.837Z,3.27
2023-02-27T10:03:01.901Z,3.10
2023-02-27T10:05:40.308Z,2.83
2023-02-27T10:08:13.320Z,2.20
2023-02-27T10:10:51.538Z,3.63
2023-02-27T10:13:37.641Z,2.20
2023-02-27T10:16:10.600Z,2.47
2023-02-27T10:18:49.249Z,2.13
2023-02-27T10:21:22.285Z,2.20
2023-02-27T10:23:54.708Z,2.87
2023-02-27T10:26:26.327Z,2.30
2023-02-27T10:28:54.167Z,2.30
2023-02-27T10:31:27.173Z,2.30
2023-02-27T10:33:57.736Z,2.10
2023-02-27T10:36:33.620Z,1.77
2023-02-27T10:39:06.157Z,2.20
2023-02-27T10:41:36.190Z,2.27
2023-02-27T10:44:04.908Z,2.20
2023-02-27T10:46:37.848Z,2.33
2023-02-27T10:49:17.515Z,2.00
2023-02-27T10:51:47.251Z,2.08
2023-02-27T10:54:20.823Z,2.20
2023-02-27T10:56:52.119Z,2.13
2023-02-27T10:59:23.529Z,2.40
2023-02-27T11:01:55.206Z,2.00
2023-02-27T11:04:29.313Z,2.00
2023-02-27T11:06:57.698Z,3.50
2023-02-27T11:09:28.106Z,2.27
2023-02-27T11:11:56.329Z,2.20
2023-02-27T11:14:30.395Z,2.17
2023-02-27T11:17:00.834Z,2.40
2023-02-27T11:19:35.133Z,2.33
2023-02-27T11:22:08.018Z,2.10
2023-02-27T11:24:36.247Z,2.27
2023-02-27T11:27:06.635Z,2.55
2023-02-27T11:29:35.625Z,1.98
2023-02-27T11:32:12.995Z,2.22
2023-02-27T11:34:48.742Z,2.25
2023-02-27T11:37:25.234Z,2.40
2023-02-27T11:39:56.625Z,2.42
2023-02-27T11:42:27.904Z,2.90
2023-02-27T11:44:58.867Z,2.63
2023-02-27T11:47:31.992Z,2.67
2023-02-27T11:50:33.339Z,2.00
2023-02-27T11:53:13.936Z,2.67
2023-02-27T11:55:41.986Z,2.17
2023-02-27T11:58:14.643Z,2.40
2023-02-27T12:00:48.292Z,2.70
2023-02-27T12:03:23.712Z,2.10
2023-02-27T12:05:54.143Z,2.03
2023-02-27T12:08:31.833Z,2.27
2023-02-27T12:11:13.920Z,2.20
2023-02-27T12:13:47.924Z,1.80
2023-02-27T12:16:22.164Z,1.73
2023-02-27T12:18:56.371Z,2.63
2023-02-27T12:21:28.446Z,2.40
2023-02-27T12:24:02.909Z,2.78
2023-02-27T12:26:35.511Z,2.20
2023-02-27T12:29:06.851Z,2.07
2023-02-27T12:31:45.856Z,2.30
2023-02-27T12:34:26.931Z,2.37
2023-02-27T12:36:55.122Z,1.70
2023-02-27T12:39:24.903Z,1.93
2023-02-27T12:42:18.233Z,2.53
2023-02-27T12:44:59.827Z,1.77
2023-02-27T12:47:37.199Z,1.90
2023-02-27T12:50:11.488Z,2.70
2023-02-27T12:52:49.539Z,2.67
2023-02-27T12:55:21.797Z,2.50
2023-02-27T12:58:15.016Z,1.95
2023-02-27T13:00:47.460Z,2.25
2023-02-27T13:03:18.404Z,2.20
2023-02-27T13:05:57.036Z,2.30
2023-02-27T13:08:55.958Z,2.20
2023-02-27T13:11:29.562Z,2.15
2023-02-27T13:14:00.727Z,1.80
2023-02-27T13:16:32.658Z,2.35
2023-02-27T13:19:06.027Z,1.70
2023-02-27T13:21:39.887Z,1.75
2023-02-27T13:24:26.026Z,2.42
2023-02-27T13:27:01.600Z,2.00
2023-02-27T13:29:36.908Z,2.40
2023-02-27T13:32:18.525Z,2.05
2023-02-27T13:34:50.921Z,1.75
2023-02-27T13:37:20.007Z,1.80
2023-02-27T13:40:01.473Z,2.30
2023-02-27T13:42:53.987Z,2.20
2023-02-27T13:45:53.914Z,1.80
2023-02-27T13:48:47.955Z,2.33
2023-02-27T13:51:56.498Z,2.28
2023-02-27T13:54:30.100Z,2.43
2023-02-27T13:57:15.190Z,2.05
2023-02-27T13:59:44.361Z,2.00
2023-02-27T14:02:31.727Z,2.40
2023-02-27T14:05:03.388Z,3.03
2023-02-27T14:07:34.748Z,2.60
2023-02-27T14:10:07.760Z,2.90
2023-02-27T14:12:45.473Z,2.85
2023-02-27T14:15:47.011Z,3.30
2023-02-27T14:18:47.895Z,3.55
2023-02-27T14:22:00.330Z,2.85
2023-02-27T14:24:38.147Z,2.30
2023-02-27T14:27:18.465Z,2.50
2023-02-27T14:29:49.246Z,3.03
2023-02-27T14:32:20.836Z,3.05
2023-02-27T14:34:49.303Z,2.65
2023-02-27T14:37:21.637Z,3.17
2023-02-27T14:39:50.743Z,2.75
2023-02-27T14:42:46.057Z,2.60
2023-02-27T14:45:15.645Z,3.75
2023-02-27T14:47:43.700Z,2.50
2023-02-27T14:50:24.348Z,2.70
2023-02-27T14:52:52.019Z,2.78
2023-02-27T14:55:27.760Z,3.83
2023-02-27T14:58:00.351Z,3.38
2023-02-27T15:00:37.947Z,3.40
2023-02-27T15:03:19.374Z,2.80
2023-02-27T15:05:48.618Z,3.50
2023-02-27T15:08:20.955Z,3.65
2023-02-27T15:10:49.135Z,2.97
2023-02-27T15:13:26.165Z,3.83
2023-02-27T15:16:31.658Z,2.45
2023-02-27T15:19:02.052Z,2.65
2023-02-27T15:21:38.637Z,3.33
2023-02-27T15:24:08.855Z,2.50
2023-02-27T15:26:40.924Z,2.90
2023-02-27T15:29:21.648Z,2.85
2023-02-27T15:31:50.016Z,2.60
2023-02-27T15:34:18.593Z,2.53
2023-02-27T15:36:48.505Z,1.90
2023-02-27T15:39:18.958Z,2.35
2023-02-27T15:41:49.090Z,2.47
2023-02-27T15:44:20.017Z,2.40
2023-02-27T15:46:48.241Z,2.47
2023-02-27T15:49:22.174Z,2.70
2023-02-27T15:51:56.520Z,3.10
2023-02-27T15:54:24.318Z,2.10
2023-02-27T15:56:53.474Z,2.72
2023-02-27T15:59:22.549Z,2.28
2023-02-27T16:01:50.831Z,2.85
2023-02-27T16:04:25.245Z,3.08
2023-02-27T16:07:01.011Z,2.58
2023-02-27T16:09:32.896Z,2.42
2023-02-27T16:12:22.070Z,2.08
2023-02-27T16:14:52.865Z,2.50
2023-02-27T16:17:27.312Z,2.58
2023-02-27T16:19:56.216Z,2.80
2023-02-27T16:22:24.566Z,2.72
2023-02-27T16:24:52.513Z,1.80
2023-02-27T16:27:24.741Z,2.63
2023-02-27T16:29:56.012Z,2.20
2023-02-27T16:32:27.035Z,2.50
2023-02-27T16:35:03.707Z,2.15
2023-02-27T16:37:37.908Z,2.00
2023-02-27T16:40:15.236Z,3.00
2023-02-27T16:42:43.398Z,1.75
2023-02-27T16:45:16.728Z,2.40
2023-02-27T16:47:45.142Z,1.98
2023-02-27T16:50:20.092Z,1.92
2023-02-27T16:52:47.732Z,1.80
2023-02-27T16:55:15.627Z,2.17
2023-02-27T16:57:43.289Z,2.10
2023-02-27T17:00:15.532Z,1.45
2023-02-27T17:02:43.695Z,1.77
2023-02-27T17:05:11.947Z,2.00
2023-02-27T17:07:39.590Z,2.15
2023-02-27T17:10:07.653Z,2.33
2023-02-27T17:12:36.623Z,2.38
2023-02-27T17:15:04.477Z,2.10
2023-02-27T17:17:33.475Z,2.25
2023-02-27T17:20:01.838Z,1.95
2023-02-27T17:22:29.466Z,2.15
2023-02-27T17:24:57.122Z,2.55
2023-02-27T17:27:24.739Z,2.40
2023-02-27T17:29:52.703Z,3.00
2023-02-27T17:32:20.327Z,2.35
2023-02-27T17:34:49.466Z,2.10
2023-02-27T17:37:17.086Z,2.60
2023-02-27T17:39:44.809Z,2.33
2023-02-27T17:42:16.457Z,2.45
2023-02-27T17:44:45.125Z,2.95
2023-02-27T17:47:12.986Z,2.80
2023-02-27T17:49:40.715Z,3.83
2023-02-27T17:52:10.311Z,3.20
2023-02-27T17:54:38.242Z,3.00
2023-02-27T17:57:06.759Z,3.65
2023-02-27T17:59:34.514Z,3.60
2023-02-27T18:02:02.180Z,3.35
2023-02-27T18:04:29.818Z,3.22
2023-02-27T18:06:57.518Z,3.72
2023-02-27T18:09:26.541Z,3.50
2023-02-27T18:11:54.381Z,3.95
2023-02-27T18:14:22.070Z,3.60
2023-02-27T18:16:49.690Z,4.05
2023-02-27T18:19:18.969Z,3.13
2023-02-27T18:21:47.066Z,3.97
2023-02-27T18:24:16.768Z,3.88
2023-02-27T18:26:45.969Z,4.10
2023-02-27T18:29:16.141Z,3.90
2023-02-27T18:31:46.089Z,3.70
2023-02-27T18:34:14.156Z,3.60
2023-02-27T18:36:41.876Z,4.07
2023-02-27T18:39:09.903Z,3.70
2023-02-27T18:41:38.196Z,4.35
2023-02-27T18:44:08.058Z,3.63
2023-02-27T18:46:36.027Z,4.30
2023-02-27T18:49:03.764Z,3.70
2023-02-27T18:51:31.580Z,4.28
2023-02-27T18:54:00.712Z,4.28
2023-02-27T18:56:30.351Z,4.15
2023-02-27T18:59:01.846Z,4.20
2023-02-27T19:01:33.077Z,3.95
2023-02-27T19:04:03.700Z,3.92
2023-02-27T19:06:32.626Z,4.55
2023-02-27T19:09:00.334Z,3.88
2023-02-27T19:11:33.142Z,4.30
2023-02-27T19:14:01.315Z,4.82
2023-02-27T19:16:29.369Z,4.78
2023-02-27T19:19:00.065Z,6.18
2023-02-27T19:21:28.838Z,6.97
2023-02-27T19:23:56.685Z,6.20
2023-02-27T19:26:25.397Z,5.50
2023-02-27T19:28:57.178Z,5.78
2023-02-27T19:31:25.909Z,5.85
2023-02-27T19:33:53.699Z,5.53
2023-02-27T19:36:23.985Z,5.20
2023-02-27T19:38:52.433Z,5.70
2023-02-27T19:41:20.860Z,5.60
2023-02-27T19:43:49.984Z,5.80
2023-02-27T19:46:20.366Z,4.65
2023-02-27T19:48:49.001Z,5.15
2023-02-27T19:51:17.838Z,5.32
2023-02-27T19:53:49.289Z,5.07
2023-02-27T19:56:19.270Z,5.10
2023-02-27T19:58:47.708Z,4.60
2023-02-27T20:01:22.272Z,4.75
2023-02-27T20:03:50.077Z,4.35
2023-02-27T20:06:20.248Z,5.35
2023-02-27T20:08:49.530Z,4.90
2023-02-27T20:11:19.695Z,4.80
2023-02-27T20:13:47.982Z,5.05
2023-02-27T20:16:16.855Z,5.22
2023-02-27T20:18:45.385Z,5.10
2023-02-27T20:21:14.974Z,7.20
2023-02-27T20:23:44.404Z,5.70
2023-02-27T20:26:19.600Z,5.40
2023-02-27T20:28:48.894Z,4.97
2023-02-27T20:31:21.114Z,4.32
2023-02-27T20:33:50.559Z,5.55
2023-02-27T20:36:18.560Z,5.65
2023-02-27T20:38:46.235Z,4.90
2023-02-27T20:41:17.764Z,4.70
2023-02-27T20:43:45.763Z,4.60
2023-02-27T20:46:15.673Z,4.60
2023-02-27T20:48:43.833Z,5.32
2023-02-27T20:51:13.983Z,5.30
2023-02-27T20:53:43.307Z,4.97
2023-02-27T20:56:12.241Z,4.70
2023-02-27T20:58:41.543Z,4.57
2023-02-27T21:01:09.753Z,4.85
2023-02-27T21:03:39.150Z,5.00
2023-02-27T21:06:08.526Z,4.85
2023-02-27T21:08:37.234Z,5.20
2023-02-27T21:11:09.640Z,5.95
2023-02-27T21:13:37.750Z,4.60
2023-02-27T21:16:09.252Z,5.22
2023-02-27T21:18:37.590Z,5.15
2023-02-27T21:21:06.355Z,5.57
2023-02-27T21:23:41.423Z,4.95
2023-02-27T21:26:10.217Z,5.18
2023-02-27T21:28:42.147Z,5.22
2023-02-27T21:31:11.237Z,5.10
2023-02-27T21:33:38.892Z,5.55
2023-02-27T21:36:07.257Z,5.45
2023-02-27T21:38:34.960Z,4.75
2023-02-27T21:41:06.901Z,6.40
2023-02-27T21:43:35.436Z,6.43
2023-02-27T21:46:06.713Z,7.57
2023-02-27T21:48:35.812Z,7.43
2023-02-27T21:51:04.159Z,7.30
2023-02-27T21:53:31.905Z,6.97
2023-02-27T21:56:03.579Z,6.55
2023-02-27T21:58:31.409Z,6.35
2023-02-27T22:00:59.300Z,7.72
2023-02-27T22:03:34.830Z,7.57
2023-02-27T22:06:06.195Z,7.03
2023-02-27T22:08:33.820Z,6.75
2023-02-27T22:11:02.229Z,7.25
2023-02-27T22:13:31.452Z,6.57
2023-02-27T22:16:03.633Z,6.80
2023-02-27T22:18:31.682Z,6.45
2023-02-27T22:20:59.811Z,6.95
2023-02-27T22:23:30.088Z,6.20
2023-02-27T22:26:01.511Z,5.60
2023-02-27T22:28:30.693Z,6.10
2023-02-27T22:31:08.233Z,6.22
2023-02-27T22:33:36.800Z,6.13
2023-02-27T22:36:09.170Z,6.82
2023-02-27T22:38:38.769Z,6.47
2023-02-27T22:41:09.188Z,6.15
2023-02-27T22:43:38.251Z,5.90
2023-02-27T22:46:06.989Z,5.82
2023-02-27T22:48:35.114Z,6.75
2023-02-27T22:51:05.818Z,6.00
2023-02-27T22:53:38.114Z,5.43
2023-02-27T22:56:09.477Z,6.82
2023-02-27T22:58:38.891Z,6.53
2023-02-27T23:01:10.860Z,6.63
2023-02-27T23:03:40.082Z,5.95
2023-02-27T23:06:09.528Z,6.00
2023-02-27T23:08:37.838Z,5.78
2023-02-27T23:11:07.415Z,7.30
2023-02-27T23:13:35.445Z,6.55
2023-02-27T23:16:11.099Z,5.95
2023-02-27T23:18:39.413Z,7.32
2023-02-27T23:21:08.183Z,6.45
2023-02-27T23:23:36.219Z,5.75
2023-02-27T23:26:04.576Z,4.82
2023-02-27T23:28:36.594Z,6.10
2023-02-27T23:31:05.565Z,6.70
2023-02-27T23:33:33.880Z,5.90
2023-02-27T23:36:02.121Z,6.32
2023-02-27T23:38:30.032Z,5.85
2023-02-27T23:40:57.750Z,5.53
2023-02-27T23:43:25.371Z,5.85
2023-02-27T23:45:54.486Z,5.88
2023-02-27T23:48:22.878Z,5.50
2023-02-27T23:50:50.475Z,5.97
2023-02-27T23:53:18.902Z,4.90
2023-02-27T23:55:46.595Z,5.40
2023-02-27T23:58:14.209Z,5.55
